createdAt,value
2018-10-09T14:25:00.335Z,65.82
2018-10-09T14:26:00.575Z,65.59
2018-10-09T14:27:00.574Z,66.17
2018-10-09T14:28:00.572Z,66.17
2018-10-09T14:29:00.573Z,66.17
2018-10-09T14:30:00.568Z,66.36
2018-10-09T14:31:00.573Z,66.27
2018-10-09T14:32:00.565Z,67.04
2018-10-09T14:33:00.564Z,66.94
2018-10-09T14:34:00.559Z,66.85
2018-10-09T14:35:00.794Z,66.46
2018-10-09T14:36:00.556Z,66.75
2018-10-09T14:37:00.563Z,66.85
2018-10-09T14:38:00.557Z,66.94
2018-10-09T14:39:00.552Z,67.23
2018-10-09T14:40:00.550Z,68.07
2018-10-09T14:41:00.548Z,67.58
2018-10-09T14:42:00.550Z,67.68
2018-10-09T14:43:00.290Z,67.58
2018-10-09T14:44:00.335Z,67.97
2018-10-09T14:45:00.542Z,68.45
2018-10-09T14:46:00.542Z,69.13
2018-10-09T14:47:00.541Z,68.93
2018-10-09T14:48:00.585Z,69.19
2018-10-09T14:49:00.531Z,68.9
2018-10-09T14:50:00.532Z,69.57
2018-10-09T14:51:00.526Z,69.77
2018-10-09T14:52:00.526Z,70.15
2018-10-09T14:53:00.526Z,70.06
2018-10-09T14:54:00.519Z,70.44
2018-10-09T14:55:00.527Z,70.64
2018-10-09T14:56:00.517Z,71.12
2018-10-09T14:57:00.261Z,70.73
2018-10-09T14:58:00.512Z,71.18
2018-10-09T14:59:00.259Z,71.47
2018-10-09T15:00:00.508Z,71.18
2018-10-09T15:01:00.511Z,71.76
2018-10-09T15:02:00.505Z,71.76
2018-10-09T15:03:00.503Z,72.05
2018-10-09T15:04:00.497Z,71.95
2018-10-09T15:05:00.493Z,71.76
2018-10-09T15:06:00.494Z,71.81
2018-10-09T15:07:00.490Z,71.91
2018-10-09T15:08:00.233Z,72.59
2018-10-09T15:09:00.229Z,72.01
2018-10-09T15:10:00.481Z,72.49
2018-10-09T15:11:00.477Z,73.13
2018-10-09T15:12:00.475Z,73.03
2018-10-09T15:13:00.472Z,73.51
2018-10-09T15:14:00.470Z,73.32
2018-10-09T15:15:00.464Z,73.42
2018-10-09T15:16:00.212Z,74.09
2018-10-09T15:17:00.619Z,74.09
2018-10-09T15:18:00.458Z,73.99
2018-10-09T15:19:00.455Z,74.29
2018-10-09T15:20:00.453Z,74.67
2018-10-09T15:21:00.451Z,74.38
2018-10-09T15:22:00.445Z,75.15
2018-10-09T15:23:00.453Z,75.54
2018-10-09T15:24:00.437Z,75.15
2018-10-09T15:25:00.434Z,75.79
2018-10-09T15:26:00.433Z,75.79
2018-10-09T15:27:00.440Z,75.98
2018-10-09T15:28:00.441Z,76.46
2018-10-09T15:29:00.539Z,76.56
2018-10-09T15:30:00.168Z,76.94
2018-10-09T15:31:00.414Z,76.46
2018-10-09T15:32:00.411Z,76.36
2018-10-09T15:33:00.414Z,77.04
2018-10-09T15:34:00.405Z,77.51
2018-10-09T15:35:00.406Z,77.76
2018-10-09T15:36:00.400Z,77.58
2018-10-09T15:37:00.397Z,78.06
2018-10-09T15:38:00.395Z,78.25
2018-10-09T15:39:00.386Z,79.11
2018-10-09T15:40:00.385Z,79.3
2018-10-09T15:41:00.144Z,79.21
2018-10-09T15:42:00.377Z,79.84
2018-10-09T15:43:00.372Z,80.22
2018-10-09T15:44:00.370Z,79.94
2018-10-09T15:45:00.368Z,80.42
2018-10-09T15:46:00.362Z,81.09
2018-10-09T15:47:00.363Z,81.38
2018-10-09T15:48:00.356Z,81.43
2018-10-09T15:49:00.350Z,81.82
2018-10-09T15:50:00.347Z,82.1
2018-10-09T15:51:00.349Z,82.2
2018-10-09T15:52:00.338Z,82.4
2018-10-09T15:53:00.349Z,82.78
2018-10-09T15:54:00.338Z,82.59
2018-10-09T15:55:00.328Z,83.26
2018-10-09T15:56:00.322Z,83.6
2018-10-09T15:57:00.321Z,83.8
2018-10-09T15:58:00.319Z,84.37
2018-10-09T15:59:00.062Z,83.98
2018-10-09T16:00:00.308Z,84.27
2018-10-09T16:01:00.302Z,84.56
2018-10-09T16:02:00.308Z,84.85
2018-10-09T16:03:00.042Z,85.14
2018-10-09T16:04:00.413Z,85.19
2018-10-09T16:05:00.037Z,85.58
2018-10-09T16:06:00.281Z,85.38
2018-10-09T16:07:00.279Z,86.05
2018-10-09T16:08:00.274Z,85.77
2018-10-09T16:09:00.018Z,86.05
2018-10-09T16:10:00.264Z,86.15
2018-10-09T16:11:00.261Z,85.86
2018-10-09T16:12:00.257Z,86.34
2018-10-09T16:13:00.253Z,86.34
2018-10-09T16:14:00.248Z,86.49
2018-10-09T16:15:00.242Z,86.78
2018-10-09T16:16:00.237Z,86.88
2018-10-09T16:17:00.241Z,86.88
2018-10-09T16:18:00.230Z,87.45
2018-10-09T16:19:00.225Z,87.45
2018-10-09T16:19:59.966Z,87.55
2018-10-09T16:21:00.214Z,87.64
2018-10-09T16:22:00.211Z,87.55
2018-10-09T16:23:00.204Z,88.02
2018-10-09T16:24:00.198Z,87.5
2018-10-09T16:25:00.191Z,88.37
2018-10-09T16:26:00.188Z,88.08
2018-10-09T16:27:00.182Z,88.17
2018-10-09T16:28:00.177Z,88.17
2018-10-09T16:29:00.172Z,89.04
2018-10-09T16:30:00.169Z,89.04
2018-10-09T16:31:00.161Z,88.75
2018-10-09T16:32:00.158Z,89.32
2018-10-09T16:33:00.152Z,88.8
2018-10-09T16:34:00.152Z,88.99
2018-10-09T16:35:00.146Z,89.18
2018-10-09T16:36:00.140Z,88.99
2018-10-09T16:37:00.137Z,89.18
2018-10-09T16:38:00.127Z,89.37
2018-10-09T16:39:00.120Z,89.47
2018-10-09T16:40:00.114Z,89.86
2018-10-09T16:41:00.113Z,89.86
2018-10-09T16:42:00.103Z,89.52
2018-10-09T16:43:00.105Z,89.72
2018-10-09T16:44:00.096Z,90
2018-10-09T16:44:59.835Z,90.19
2018-10-09T16:46:00.083Z,90.48
2018-10-09T16:47:00.078Z,90.39
2018-10-09T16:48:00.075Z,90.67
2018-10-09T16:49:00.065Z,90.39
2018-10-09T16:50:00.064Z,90.96
2018-10-09T16:51:00.058Z,90.77
2018-10-09T16:52:00.047Z,90.67
2018-10-09T16:53:00.048Z,91.01
2018-10-09T16:54:00.045Z,90.82
2018-10-09T16:55:00.031Z,90.91
2018-10-09T16:56:00.026Z,91.49
2018-10-09T16:57:00.019Z,91.39
2018-10-09T16:57:59.760Z,91.2
2018-10-09T16:59:00.010Z,91.11
2018-10-09T17:00:00.003Z,91.2
2018-10-09T17:00:59.996Z,91.49
2018-10-09T17:01:59.989Z,91.49
2018-10-09T17:02:59.982Z,91.77
2018-10-09T17:03:59.977Z,91.49
2018-10-09T17:04:59.970Z,91.73
2018-10-09T17:05:59.965Z,91.97
2018-10-09T17:06:59.709Z,92.02
2018-10-09T17:07:59.957Z,92.21
2018-10-09T17:08:59.945Z,91.83
2018-10-09T17:09:59.941Z,91.73
2018-10-09T17:10:59.935Z,91.73
2018-10-09T17:11:59.929Z,92.78
2018-10-09T17:12:59.923Z,91.73
2018-10-09T17:13:59.914Z,91.63
2018-10-09T17:14:59.910Z,91.73
2018-10-09T17:15:59.902Z,92.4
2018-10-09T17:16:59.895Z,92.49
2018-10-09T17:17:59.638Z,92.35
2018-10-09T17:18:59.630Z,92.16
2018-10-09T17:19:59.879Z,92.25
2018-10-09T17:20:59.871Z,92.54
2018-10-09T17:21:59.866Z,92.64
2018-10-09T17:22:59.857Z,92.45
2018-10-09T17:23:59.856Z,92.45
2018-10-09T17:24:59.849Z,92.35
2018-10-09T17:25:59.839Z,92.64
2018-10-09T17:26:59.936Z,92.54
2018-10-09T17:27:59.826Z,92.74
2018-10-09T17:28:59.820Z,92.74
2018-10-09T17:29:59.816Z,92.54
2018-10-09T17:30:59.810Z,93.02
2018-10-09T17:31:59.549Z,93.21
2018-10-09T17:32:59.549Z,93.12
2018-10-09T17:33:59.536Z,93.21
2018-10-09T17:34:59.530Z,92.83
2018-10-09T17:35:59.778Z,93.12
2018-10-09T17:36:59.775Z,93.02
2018-10-09T17:37:59.511Z,93.12
2018-10-09T17:38:59.559Z,93.12
2018-10-09T17:39:59.750Z,93.02
2018-10-09T17:40:59.746Z,93.6
2018-10-09T17:41:59.823Z,93.45
2018-10-09T17:42:59.479Z,93.55
2018-10-09T17:43:59.732Z,93.36
2018-10-09T17:44:59.715Z,93.65
2018-10-09T17:45:59.709Z,93.55
2018-10-09T17:46:59.965Z,93.55
2018-10-09T17:47:59.450Z,93.16
2018-10-09T17:48:59.436Z,93.45
2018-10-09T17:49:59.685Z,93.84
2018-10-09T17:50:59.422Z,93.16
2018-10-09T17:51:59.675Z,93.45
2018-10-09T17:52:59.410Z,93.55
2018-10-09T17:53:59.656Z,93.45
2018-10-09T17:54:59.647Z,93.93
2018-10-09T17:55:59.641Z,93.84
2018-10-09T17:56:59.635Z,93.16
2018-10-09T17:57:59.632Z,93.84
2018-10-09T17:58:59.622Z,93.55
2018-10-09T17:59:59.615Z,93.6
2018-10-09T18:00:59.607Z,93.45
2018-10-09T18:01:59.601Z,93.5
2018-10-09T18:02:59.595Z,93.7
2018-10-09T18:03:59.333Z,93.5
2018-10-09T18:04:59.581Z,93.7
2018-10-09T18:05:59.575Z,94.07
2018-10-09T18:06:59.570Z,94.07
2018-10-09T18:07:59.564Z,93.79
2018-10-09T18:08:59.791Z,93.79
2018-10-09T18:09:59.291Z,94.17
2018-10-09T18:10:59.534Z,93.98
2018-10-09T18:11:59.528Z,94.17
2018-10-09T18:12:59.521Z,93.98
2018-10-09T18:13:59.265Z,93.88
2018-10-09T18:14:59.592Z,93.98
2018-10-09T18:15:59.504Z,93.98
2018-10-09T18:16:59.492Z,94.17
2018-10-09T18:17:59.482Z,93.65
2018-10-09T18:18:59.479Z,94.27
2018-10-09T18:19:59.219Z,94.03
2018-10-09T18:20:59.212Z,94.03
2018-10-09T18:21:59.204Z,94.12
2018-10-09T18:22:59.448Z,94.22
2018-10-09T18:23:59.444Z,94.22
2018-10-09T18:24:59.435Z,94.41
2018-10-09T18:25:59.427Z,94.41
2018-10-09T18:26:59.418Z,94.12
2018-10-09T18:27:59.413Z,93.93
2018-10-09T18:28:59.406Z,94.12
2018-10-09T18:29:59.146Z,93.93
2018-10-09T18:30:59.389Z,94.12
2018-10-09T18:31:59.383Z,94.03
2018-10-09T18:32:59.910Z,94.22
2018-10-09T18:33:59.367Z,93.84
2018-10-09T18:34:59.361Z,93.84
2018-10-09T18:35:59.100Z,93.84
2018-10-09T18:36:59.347Z,93.93
2018-10-09T18:37:59.338Z,94.12
2018-10-09T18:38:59.331Z,93.74
2018-10-09T18:39:59.331Z,94.12
2018-10-09T18:40:59.521Z,93.93
2018-10-09T18:41:59.443Z,93.88
2018-10-09T18:42:59.047Z,93.93
2018-10-09T18:43:59.325Z,93.98
2018-10-09T18:44:59.287Z,93.88
2018-10-09T18:45:59.024Z,93.98
2018-10-09T18:46:59.280Z,94.03
2018-10-09T18:47:59.011Z,93.98
2018-10-09T18:48:59.256Z,93.88
2018-10-09T18:49:59.247Z,93.98
2018-10-09T18:50:59.236Z,93.88
2018-10-09T18:51:59.230Z,93.79
2018-10-09T18:52:58.969Z,93.6
2018-10-09T18:53:59.216Z,93.98
2018-10-09T18:54:59.208Z,93.7
2018-10-09T18:55:59.197Z,93.79
2018-10-09T18:56:59.190Z,93.79
2018-10-09T18:57:59.182Z,93.98
2018-10-09T18:58:59.175Z,93.79
2018-10-09T18:59:59.169Z,93.98
2018-10-09T19:00:59.161Z,93.98
2018-10-09T19:01:58.897Z,93.98
2018-10-09T19:02:59.141Z,93.51
2018-10-09T19:03:59.133Z,93.6
2018-10-09T19:04:59.127Z,93.41
2018-10-09T19:05:59.118Z,93.41
2018-10-09T19:06:59.111Z,93.79
2018-10-09T19:07:58.851Z,93.41
2018-10-09T19:08:59.101Z,93.41
2018-10-09T19:09:59.088Z,93.79
2018-10-09T19:10:59.189Z,93.41
2018-10-09T19:11:59.075Z,93.41
2018-10-09T19:12:59.063Z,93.7
2018-10-09T19:13:59.055Z,93.41
2018-10-09T19:14:59.061Z,93.41
2018-10-09T19:15:59.044Z,93.41
2018-10-09T19:16:59.085Z,93.7
2018-10-09T19:17:59.226Z,93.51
2018-10-09T19:18:59.015Z,93.17
2018-10-09T19:19:59.009Z,93.51
2018-10-09T19:20:58.998Z,93.17
2018-10-09T19:21:58.991Z,93.46
2018-10-09T19:22:58.989Z,93.27
2018-10-09T19:23:59.237Z,93.55
2018-10-09T19:24:58.972Z,93.22
2018-10-09T19:25:58.961Z,93.27
2018-10-09T19:26:58.958Z,93.46
2018-10-09T19:27:58.946Z,93.46
2018-10-09T19:28:58.935Z,93.46
2018-10-09T19:29:58.928Z,93.46
2018-10-09T19:30:58.667Z,93.46
2018-10-09T19:31:58.910Z,93.46
2018-10-09T19:32:58.903Z,93.46
2018-10-09T19:33:58.895Z,93.46
2018-10-09T19:34:58.884Z,93.46
2018-10-09T19:35:58.879Z,93.36
2018-10-09T19:36:58.621Z,93.46
2018-10-09T19:37:58.610Z,93.27
2018-10-09T19:38:58.599Z,93.36
2018-10-09T19:39:58.844Z,93.46
2018-10-09T19:40:58.856Z,93.46
2018-10-09T19:41:58.827Z,93.46
2018-10-09T19:42:58.819Z,93.27
2018-10-09T19:43:58.813Z,93.36
2018-10-09T19:44:58.803Z,93.27
2018-10-09T19:45:58.795Z,93.27
2018-10-09T19:46:58.788Z,93.27
2018-10-09T19:47:58.527Z,93.27
2018-10-09T19:48:58.771Z,93.55
2018-10-09T19:49:58.762Z,93.36
2018-10-09T19:50:58.786Z,93.08
2018-10-09T19:51:58.746Z,93.36
2018-10-09T19:52:58.742Z,93.17
2018-10-09T19:53:58.729Z,93.36
2018-10-09T19:54:58.470Z,93.27
2018-10-09T19:55:58.717Z,93.17
2018-10-09T19:56:58.703Z,93.08
2018-10-09T19:57:58.695Z,93.55
2018-10-09T19:58:58.437Z,93.46
2018-10-09T19:59:58.427Z,92.98
2018-10-09T20:00:58.734Z,93.36
2018-10-09T20:01:58.664Z,93.55
2018-10-09T20:02:58.656Z,93.46
2018-10-09T20:03:58.645Z,92.79
2018-10-09T20:04:58.638Z,92.69
2018-10-09T20:05:58.628Z,92.88
2018-10-09T20:06:58.624Z,92.88
2018-10-09T20:07:58.361Z,92.69
2018-10-09T20:08:58.608Z,92.79
2018-10-09T20:09:58.598Z,92.79
2018-10-09T20:10:58.597Z,92.79
2018-10-09T20:11:58.328Z,92.69
2018-10-09T20:12:58.570Z,93.36
2018-10-09T20:13:58.562Z,92.69
2018-10-09T20:14:58.553Z,92.79
2018-10-09T20:15:58.548Z,92.74
2018-10-09T20:16:58.539Z,93.36
2018-10-09T20:17:58.529Z,92.79
2018-10-09T20:18:58.521Z,92.79
2018-10-09T20:19:58.509Z,92.74
2018-10-09T20:20:58.761Z,92.98
2018-10-09T20:21:58.498Z,92.74
2018-10-09T20:22:58.492Z,92.74
2018-10-09T20:23:58.476Z,92.74
2018-10-09T20:24:58.472Z,92.65
2018-10-09T20:25:58.459Z,92.65
2018-10-09T20:26:58.452Z,92.93
2018-10-09T20:27:58.443Z,92.65
2018-10-09T20:28:58.183Z,92.74
2018-10-09T20:29:58.426Z,92.55
2018-10-09T20:30:58.415Z,93.12
2018-10-09T20:31:58.415Z,93.22
2018-10-09T20:32:58.399Z,92.55
2018-10-09T20:33:58.428Z,92.55
2018-10-09T20:34:58.383Z,92.65
2018-10-09T20:35:58.375Z,93.12
2018-10-09T20:36:58.367Z,93.32
2018-10-09T20:37:58.357Z,92.46
2018-10-09T20:38:58.390Z,93.03
2018-10-09T20:39:58.340Z,92.74
2018-10-09T20:40:58.332Z,92.84
2018-10-09T20:41:58.577Z,92.93
2018-10-09T20:42:58.317Z,92.65
2018-10-09T20:43:58.306Z,92.65
2018-10-09T20:44:58.303Z,93.12
2018-10-09T20:45:58.290Z,92.74
2018-10-09T20:46:58.030Z,92.55
2018-10-09T20:47:58.274Z,92.65
2018-10-09T20:48:58.263Z,92.65
2018-10-09T20:49:58.260Z,92.84
2018-10-09T20:50:58.247Z,92.46
2018-10-09T20:51:58.236Z,92.74
2018-10-09T20:52:58.229Z,92.55
2018-10-09T20:53:58.220Z,92.84
2018-10-09T20:54:57.960Z,92.46
2018-10-09T20:55:58.202Z,92.65
2018-10-09T20:56:58.194Z,92.55
2018-10-09T20:57:58.185Z,92.65
2018-10-09T20:58:58.178Z,92.65
2018-10-09T20:59:58.164Z,92.84
2018-10-09T21:00:58.169Z,92.93
2018-10-09T21:01:58.149Z,92.65
2018-10-09T21:02:58.142Z,92.84
2018-10-09T21:03:58.137Z,92.74
2018-10-09T21:04:58.124Z,92.65
2018-10-09T21:05:58.194Z,92.84
2018-10-09T21:06:58.106Z,92.93
2018-10-09T21:07:58.098Z,92.93
2018-10-09T21:08:57.838Z,92.84
2018-10-09T21:09:58.081Z,92.65
2018-10-09T21:10:58.077Z,93.03
2018-10-09T21:11:58.064Z,92.84
2018-10-09T21:12:58.056Z,93.03
2018-10-09T21:13:58.044Z,92.93
2018-10-09T21:14:58.038Z,92.93
2018-10-09T21:15:58.028Z,92.74
2018-10-09T21:16:58.021Z,92.84
2018-10-09T21:17:58.225Z,92.74
2018-10-09T21:18:57.751Z,92.74
2018-10-09T21:19:57.992Z,92.84
2018-10-09T21:20:57.992Z,92.74
2018-10-09T21:21:57.722Z,92.17
2018-10-09T21:22:57.968Z,92.93
2018-10-09T21:23:57.963Z,92.74
2018-10-09T21:24:57.949Z,92.74
2018-10-09T21:25:57.939Z,92.93
2018-10-09T21:26:57.928Z,92.93
2018-10-09T21:27:57.922Z,92.65
2018-10-09T21:28:57.917Z,92.08
2018-10-09T21:29:58.127Z,92.27
2018-10-09T21:30:57.894Z,91.98
2018-10-09T21:31:57.886Z,91.88
2018-10-09T21:32:57.883Z,91.88
2018-10-09T21:33:57.870Z,91.88
2018-10-09T21:34:57.865Z,92.74
2018-10-09T21:35:57.851Z,92.17
2018-10-09T21:36:57.844Z,92.74
2018-10-09T21:37:57.836Z,92.17
2018-10-09T21:38:57.830Z,92.17
2018-10-09T21:39:57.816Z,92.17
2018-10-09T21:40:57.807Z,92.08
2018-10-09T21:41:57.806Z,92.08
2018-10-09T21:42:57.793Z,91.98
2018-10-09T21:43:57.780Z,91.98
2018-10-09T21:44:57.520Z,92.08
2018-10-09T21:45:57.763Z,92.17
2018-10-09T21:46:57.756Z,92.17
2018-10-09T21:47:57.492Z,91.98
2018-10-09T21:48:57.735Z,92.13
2018-10-09T21:49:57.474Z,91.94
2018-10-09T21:50:57.466Z,92.13
2018-10-09T21:51:57.717Z,92.13
2018-10-09T21:52:57.699Z,92.22
2018-10-09T21:53:57.693Z,92.03
2018-10-09T21:54:57.680Z,92.22
2018-10-09T21:55:57.672Z,92.13
2018-10-09T21:56:57.663Z,92.22
2018-10-09T21:57:57.655Z,92.79
2018-10-09T21:58:57.646Z,91.94
2018-10-09T21:59:57.637Z,92.03
2018-10-09T22:00:57.376Z,92.03
2018-10-09T22:01:57.619Z,92.13
2018-10-09T22:02:57.609Z,91.84
2018-10-09T22:03:57.602Z,91.84
2018-10-09T22:04:57.591Z,92.13
2018-10-09T22:05:57.583Z,92.13
2018-10-09T22:06:57.575Z,92.13
2018-10-09T22:07:57.565Z,92.32
2018-10-09T22:08:57.563Z,92.03
2018-10-09T22:09:57.547Z,92.03
2018-10-09T22:10:57.538Z,92.22
2018-10-09T22:11:57.527Z,92.03
2018-10-09T22:12:57.526Z,92.13
2018-10-09T22:13:57.514Z,92.32
2018-10-09T22:14:57.502Z,92.22
2018-10-09T22:15:57.491Z,92.32
2018-10-09T22:16:57.487Z,92.32
2018-10-09T22:17:57.474Z,92.32
2018-10-09T22:18:57.469Z,92.32
2018-10-09T22:19:57.461Z,92.32
2018-10-09T22:20:57.450Z,92.32
2018-10-09T22:21:57.442Z,92.32
2018-10-09T22:22:57.433Z,92.22
2018-10-09T22:23:57.421Z,92.22
2018-10-09T22:24:57.413Z,92.03
2018-10-09T22:25:57.406Z,92.03
2018-10-09T22:26:57.395Z,92.03
2018-10-09T22:27:57.386Z,92.22
2018-10-09T22:28:57.380Z,92.03
2018-10-09T22:29:57.377Z,92.13
2018-10-09T22:30:57.364Z,92.13
2018-10-09T22:31:57.361Z,92.03
2018-10-09T22:32:57.353Z,92.03
2018-10-09T22:33:57.346Z,91.94
2018-10-09T22:34:57.331Z,92.22
2018-10-09T22:35:57.321Z,92.03
2018-10-09T22:36:57.313Z,92.22
2018-10-09T22:37:57.305Z,92.03
2018-10-09T22:38:57.297Z,92.13
2018-10-09T22:39:57.281Z,92.13
2018-10-09T22:40:57.278Z,92.03
2018-10-09T22:41:57.268Z,92.03
2018-10-09T22:42:57.507Z,92.13
2018-10-09T22:43:57.359Z,92.03
2018-10-09T22:44:57.237Z,91.94
2018-10-09T22:45:57.226Z,92.03
2018-10-09T22:46:57.220Z,92.13
2018-10-09T22:47:57.217Z,92.03
2018-10-09T22:48:57.203Z,92.13
2018-10-09T22:49:57.193Z,92.13
2018-10-09T22:50:57.187Z,92.13
2018-10-09T22:51:57.183Z,92.13
2018-10-09T22:52:56.912Z,92.13
2018-10-09T22:53:56.902Z,92.13
2018-10-09T22:54:56.893Z,92.03
2018-10-09T22:55:57.139Z,92.03
2018-10-09T22:56:57.134Z,92.03
2018-10-09T22:57:57.121Z,92.22
2018-10-09T22:58:57.112Z,91.94
2018-10-09T22:59:57.105Z,92.13
2018-10-09T23:00:57.090Z,92.03
2018-10-09T23:01:57.082Z,91.94
2018-10-09T23:02:57.075Z,92.41
2018-10-09T23:03:57.068Z,92.13
2018-10-09T23:04:57.056Z,92.03
2018-10-09T23:05:56.794Z,91.99
2018-10-09T23:06:56.786Z,92.03
2018-10-09T23:07:56.778Z,91.99
2018-10-09T23:08:57.016Z,92.32
2018-10-09T23:09:56.757Z,92.22
2018-10-09T23:10:56.996Z,91.89
2018-10-09T23:11:56.990Z,91.65
2018-10-09T23:12:56.980Z,91.94
2018-10-09T23:13:56.989Z,92.32
2018-10-09T23:14:56.701Z,92.13
2018-10-09T23:15:56.954Z,91.94
2018-10-09T23:16:56.937Z,91.55
2018-10-09T23:17:56.928Z,92.03
2018-10-09T23:18:56.711Z,91.94
2018-10-09T23:19:56.910Z,91.74
2018-10-09T23:20:56.900Z,92.22
2018-10-09T23:21:56.896Z,91.74
2018-10-09T23:22:56.881Z,91.27
2018-10-09T23:23:56.877Z,92.03
2018-10-09T23:24:56.863Z,91.74
2018-10-09T23:25:56.857Z,91.74
2018-10-09T23:26:56.842Z,91.94
2018-10-09T23:27:56.838Z,91.74
2018-10-09T23:28:56.826Z,92.13
2018-10-09T23:29:56.818Z,92.03
2018-10-09T23:30:56.813Z,92.13
2018-10-09T23:31:56.547Z,91.84
2018-10-09T23:32:56.538Z,91.17
2018-10-09T23:33:56.780Z,92.03
2018-10-09T23:34:56.772Z,91.94
2018-10-09T23:35:56.760Z,91.89
2018-10-09T23:36:56.757Z,91.55
2018-10-09T23:37:56.752Z,91.94
2018-10-09T23:38:56.736Z,91.17
2018-10-09T23:39:56.723Z,92.13
2018-10-09T23:40:56.719Z,92.08
2018-10-09T23:41:56.710Z,91.55
2018-10-09T23:42:56.473Z,91.51
2018-10-09T23:43:56.689Z,91.94
2018-10-09T23:44:56.426Z,91.55
2018-10-09T23:45:56.670Z,91.51
2018-10-09T23:46:56.659Z,91.89
2018-10-09T23:47:56.654Z,91.51
2018-10-09T23:48:56.646Z,91.94
2018-10-09T23:49:56.634Z,92.08
2018-10-09T23:50:56.624Z,91.31
2018-10-09T23:51:56.613Z,91.89
2018-10-09T23:52:56.607Z,91.41
2018-10-09T23:53:56.597Z,91.51
2018-10-09T23:54:56.588Z,91.13
2018-10-09T23:55:56.330Z,91.89
2018-10-09T23:56:56.568Z,91.51
2018-10-09T23:57:56.560Z,91.89
2018-10-09T23:58:56.554Z,91.41
2018-10-09T23:59:56.540Z,91.41
